createdAt,value
2017-05-27T00:08:20.275Z,2.28
2017-05-27T00:10:48.505Z,2.22
2017-05-27T00:13:16.711Z,3.12
2017-05-27T00:15:44.935Z,2.68
2017-05-27T00:18:13.144Z,2.60
2017-05-27T00:20:41.381Z,3.18
2017-05-27T00:23:09.581Z,2.78
2017-05-27T00:25:37.817Z,2.60
2017-05-27T00:28:06.023Z,2.54
2017-05-27T00:30:34.235Z,2.80
2017-05-27T00:33:02.464Z,2.56
2017-05-27T00:35:30.674Z,2.16
2017-05-27T00:37:58.903Z,2.48
2017-05-27T00:40:27.111Z,2.80
2017-05-27T00:46:08.255Z,2.52
2017-05-27T00:48:36.479Z,2.42
2017-05-27T00:51:04.699Z,2.46
2017-05-27T00:53:32.920Z,2.78
2017-05-27T00:56:01.918Z,2.70
2017-05-27T00:58:30.139Z,3.16
2017-05-27T01:00:58.351Z,2.26
2017-05-27T01:03:26.583Z,2.62
2017-05-27T01:05:54.796Z,2.90
2017-05-27T01:08:23.000Z,2.60
2017-05-27T01:10:51.227Z,2.74
2017-05-27T01:13:19.443Z,2.56
2017-05-27T01:15:47.686Z,2.22
2017-05-27T01:18:15.895Z,2.32
2017-05-27T01:20:44.112Z,2.60
2017-05-27T01:23:12.328Z,2.36
2017-05-27T01:25:40.559Z,2.90
2017-05-27T01:28:08.771Z,2.90
2017-05-27T01:30:37.003Z,3.00
2017-05-27T01:33:05.207Z,2.32
2017-05-27T01:35:33.415Z,2.98
2017-05-27T01:38:02.631Z,3.92
2017-05-27T01:40:30.847Z,2.50
2017-05-27T01:43:02.459Z,2.74
2017-05-27T01:45:30.671Z,3.12
2017-05-27T01:47:58.891Z,2.54
2017-05-27T01:50:27.099Z,2.82
2017-05-27T01:52:55.323Z,2.90
2017-05-27T01:55:23.532Z,3.12
2017-05-27T01:57:52.068Z,2.56
2017-05-27T02:00:20.278Z,3.08
2017-05-27T02:02:48.520Z,2.50
2017-05-27T02:05:16.735Z,3.00
2017-05-27T02:07:44.943Z,3.18
2017-05-27T02:10:13.176Z,3.72
2017-05-27T02:12:41.394Z,2.58
2017-05-27T02:15:09.611Z,2.92
2017-05-27T02:17:37.815Z,3.16
2017-05-27T02:20:06.039Z,3.14
2017-05-27T02:22:34.251Z,2.74
2017-05-27T02:25:02.483Z,3.58
2017-05-27T02:27:30.699Z,3.26
2017-05-27T02:29:58.928Z,3.14
2017-05-27T02:32:27.136Z,4.06
2017-05-27T02:34:57.263Z,3.00
2017-05-27T02:37:25.484Z,2.70
2017-05-27T02:39:53.698Z,3.48
2017-05-27T02:48:19.127Z,3.84
2017-05-27T02:50:48.812Z,3.40
2017-05-27T02:53:17.019Z,3.62
2017-05-27T02:55:45.231Z,3.24
2017-05-27T02:58:13.455Z,3.78
2017-05-27T03:00:41.665Z,3.00
2017-05-27T03:03:09.887Z,3.30
2017-05-27T03:05:38.099Z,3.30
2017-05-27T03:08:06.320Z,2.94
2017-05-27T03:10:34.526Z,3.40
2017-05-27T03:13:02.747Z,3.10
2017-05-27T03:15:30.971Z,3.38
2017-05-27T03:17:59.183Z,4.24
2017-05-27T03:20:27.950Z,4.12
2017-05-27T03:22:56.164Z,3.76
2017-05-27T03:25:24.550Z,3.78
2017-05-27T03:27:52.762Z,3.52
2017-05-27T03:30:20.983Z,3.28
2017-05-27T03:32:49.203Z,3.44
2017-05-27T03:35:17.418Z,4.10
2017-05-27T03:37:45.641Z,4.42
2017-05-27T03:40:13.859Z,4.70
2017-05-27T03:42:42.980Z,3.70
2017-05-27T03:45:11.191Z,4.06
2017-05-27T03:47:39.414Z,4.10
2017-05-27T03:50:07.629Z,3.96
2017-05-27T03:52:35.860Z,4.18
2017-05-27T03:55:04.067Z,4.20
2017-05-27T03:57:32.287Z,4.52
2017-05-27T04:00:00.494Z,4.76
2017-05-27T04:02:28.724Z,4.70
2017-05-27T04:04:56.936Z,4.58
2017-05-27T04:07:25.153Z,3.80
2017-05-27T04:09:53.371Z,3.70
2017-05-27T04:12:21.579Z,4.14
2017-05-27T04:14:49.810Z,3.78
2017-05-27T04:17:18.015Z,3.20
2017-05-27T04:19:46.243Z,3.40
2017-05-27T04:22:14.455Z,3.18
2017-05-27T04:24:42.684Z,3.70
2017-05-27T04:27:10.899Z,3.72
2017-05-27T04:29:39.130Z,3.36
2017-05-27T04:32:07.331Z,3.50
2017-05-27T04:34:35.576Z,4.22
2017-05-27T04:37:03.794Z,3.66
2017-05-27T04:39:32.007Z,4.04
2017-05-27T04:42:00.231Z,4.20
2017-05-27T04:44:28.439Z,4.46
2017-05-27T04:46:56.668Z,3.54
2017-05-27T04:49:24.885Z,3.38
2017-05-27T04:51:53.836Z,3.42
2017-05-27T04:54:22.048Z,3.22
2017-05-27T04:56:50.275Z,3.28
2017-05-27T04:59:18.483Z,2.94
2017-05-27T05:01:46.702Z,3.40
2017-05-27T05:04:14.922Z,3.12
2017-05-27T05:06:43.144Z,2.80
2017-05-27T05:09:11.359Z,2.76
2017-05-27T05:11:39.575Z,2.98
2017-05-27T05:14:07.794Z,3.18
2017-05-27T05:16:36.015Z,2.54
2017-05-27T05:19:04.247Z,2.88
2017-05-27T05:21:32.463Z,3.18
2017-05-27T05:24:00.688Z,3.08
2017-05-27T05:26:28.895Z,3.02
2017-05-27T05:28:57.105Z,2.70
2017-05-27T05:31:25.327Z,2.66
2017-05-27T05:33:53.539Z,2.40
2017-05-27T05:36:21.771Z,2.90
2017-05-27T05:38:49.981Z,2.82
2017-05-27T05:41:22.297Z,3.12
2017-05-27T05:43:50.504Z,3.04
2017-05-27T05:46:18.735Z,2.86
2017-05-27T05:48:46.940Z,2.74
2017-05-27T05:51:15.155Z,2.86
2017-05-27T05:53:43.368Z,2.84
2017-05-27T05:56:11.576Z,2.94
2017-05-27T05:58:39.796Z,2.96
2017-05-27T06:01:08.012Z,2.74
2017-05-27T06:03:36.244Z,3.24
2017-05-27T06:06:04.451Z,3.10
2017-05-27T06:08:33.076Z,3.20
2017-05-27T06:11:01.283Z,2.78
2017-05-27T06:13:29.524Z,2.46
2017-05-27T06:15:57.739Z,2.90
2017-05-27T06:18:25.960Z,2.60
2017-05-27T06:20:54.179Z,2.60
2017-05-27T06:23:22.393Z,3.02
2017-05-27T06:25:50.608Z,3.06
2017-05-27T06:28:18.816Z,2.80
2017-05-27T06:30:47.035Z,2.74
2017-05-27T06:33:15.251Z,3.42
2017-05-27T06:35:43.471Z,3.08
2017-05-27T06:38:11.683Z,3.32
2017-05-27T06:40:39.903Z,3.28
2017-05-27T06:43:11.748Z,3.10
2017-05-27T06:45:39.984Z,3.06
2017-05-27T06:48:08.197Z,3.58
2017-05-27T06:50:36.419Z,3.66
2017-05-27T06:53:04.645Z,2.88
2017-05-27T06:55:32.859Z,3.42
2017-05-27T06:58:01.071Z,3.40
2017-05-27T07:00:29.300Z,3.22
2017-05-27T07:02:57.522Z,3.44
2017-05-27T07:05:25.734Z,3.80
2017-05-27T07:07:53.963Z,3.34
2017-05-27T07:10:22.177Z,3.88
2017-05-27T07:12:50.399Z,3.68
2017-05-27T07:15:18.614Z,3.56
2017-05-27T07:17:46.847Z,4.06
2017-05-27T07:20:15.068Z,4.30
2017-05-27T07:22:43.283Z,3.76
2017-05-27T07:25:11.494Z,3.64
2017-05-27T07:27:39.728Z,3.88
2017-05-27T07:30:07.943Z,4.18
2017-05-27T07:32:36.176Z,3.90
2017-05-27T07:35:04.388Z,4.10
2017-05-27T07:37:32.611Z,3.80
2017-05-27T07:40:00.831Z,3.78
2017-05-27T07:42:29.056Z,3.92
2017-05-27T07:44:57.272Z,3.90
2017-05-27T07:47:25.483Z,3.90
2017-05-27T07:49:53.699Z,3.90
2017-05-27T07:52:21.907Z,3.76
2017-05-27T07:54:50.125Z,4.12
2017-05-27T07:57:18.342Z,3.68
2017-05-27T07:59:46.576Z,3.72
2017-05-27T08:02:14.791Z,3.90
2017-05-27T08:04:43.033Z,3.20
2017-05-27T08:07:11.250Z,3.52
2017-05-27T08:09:39.461Z,3.30
2017-05-27T08:12:08.873Z,3.70
2017-05-27T08:14:37.095Z,3.18
2017-05-27T08:17:05.319Z,3.86
2017-05-27T08:19:33.531Z,4.14
2017-05-27T08:22:01.751Z,4.00
2017-05-27T08:24:29.958Z,3.90
2017-05-27T08:26:58.187Z,3.80
2017-05-27T08:29:26.405Z,3.64
2017-05-27T08:31:54.619Z,3.44
2017-05-27T08:34:28.603Z,3.90
2017-05-27T08:36:56.823Z,3.82
2017-05-27T08:39:25.038Z,3.98
2017-05-27T08:41:53.259Z,4.02
2017-05-27T08:44:21.475Z,3.94
2017-05-27T08:46:49.692Z,3.32
2017-05-27T08:49:17.909Z,3.68
2017-05-27T08:51:47.059Z,3.38
2017-05-27T08:54:15.285Z,4.12
2017-05-27T08:56:43.516Z,3.58
2017-05-27T08:59:11.734Z,4.02
2017-05-27T09:01:39.935Z,3.52
2017-05-27T09:04:08.155Z,3.84
2017-05-27T09:06:36.611Z,3.00
2017-05-27T09:09:04.832Z,3.90
2017-05-27T09:11:33.054Z,3.72
2017-05-27T09:14:01.255Z,4.10
2017-05-27T09:16:29.470Z,3.70
2017-05-27T09:18:57.687Z,3.90
2017-05-27T09:21:25.910Z,4.50
2017-05-27T09:23:54.128Z,4.00
2017-05-27T09:26:22.347Z,3.78
2017-05-27T09:28:50.555Z,3.32
2017-05-27T09:31:18.772Z,3.92
2017-05-27T09:33:46.979Z,3.40
2017-05-27T09:36:15.195Z,3.30
2017-05-27T09:38:43.422Z,3.88
2017-05-27T09:41:11.640Z,3.92
2017-05-27T09:43:39.858Z,3.86
2017-05-27T09:46:08.071Z,3.24
2017-05-27T09:48:36.291Z,2.90
2017-05-27T09:51:04.503Z,3.30
2017-05-27T09:53:32.729Z,3.08
2017-05-27T09:56:00.946Z,2.82
2017-05-27T09:58:29.160Z,3.20
2017-05-27T10:00:57.383Z,3.44
2017-05-27T10:03:25.586Z,2.80
2017-05-27T10:05:53.821Z,3.22
2017-05-27T10:08:22.038Z,2.98
2017-05-27T10:10:51.139Z,2.90
2017-05-27T10:13:19.351Z,3.28
2017-05-27T10:15:47.575Z,2.80
2017-05-27T10:18:16.671Z,3.10
2017-05-27T10:20:44.895Z,3.70
2017-05-27T10:23:14.085Z,3.08
2017-05-27T10:25:42.303Z,3.10
2017-05-27T10:28:10.515Z,2.84
2017-05-27T10:30:38.731Z,3.26
2017-05-27T10:33:06.956Z,3.44
2017-05-27T10:35:35.175Z,2.60
2017-05-27T10:38:03.407Z,3.12
2017-05-27T10:40:31.608Z,3.24
2017-05-27T10:42:59.845Z,3.28
2017-05-27T10:45:28.064Z,3.34
2017-05-27T10:47:56.302Z,3.30
2017-05-27T10:50:25.419Z,3.60
2017-05-27T10:52:53.635Z,3.68
2017-05-27T10:55:21.860Z,3.00
2017-05-27T10:57:50.979Z,2.92
2017-05-27T11:00:19.198Z,3.30
2017-05-27T11:02:47.412Z,3.92
2017-05-27T11:05:15.632Z,3.94
2017-05-27T11:07:43.855Z,3.12
2017-05-27T11:10:12.075Z,3.24
2017-05-27T11:12:40.287Z,3.34
2017-05-27T11:15:08.507Z,3.38
2017-05-27T11:17:36.714Z,3.42
2017-05-27T11:20:04.955Z,3.70
2017-05-27T11:22:33.163Z,3.36
2017-05-27T11:25:01.376Z,2.72
2017-05-27T11:27:29.600Z,3.22
2017-05-27T11:29:57.807Z,3.60
2017-05-27T11:32:26.027Z,3.54
2017-05-27T11:34:54.240Z,2.66
2017-05-27T11:37:22.476Z,3.28
2017-05-27T11:39:50.683Z,3.36
2017-05-27T11:42:18.918Z,3.50
2017-05-27T11:44:47.119Z,2.66
2017-05-27T11:47:15.348Z,3.52
2017-05-27T11:49:43.555Z,3.10
2017-05-27T11:52:11.771Z,3.30
2017-05-27T11:54:39.996Z,3.22
2017-05-27T11:57:08.206Z,3.28
2017-05-27T11:59:36.428Z,2.80
2017-05-27T12:02:04.632Z,3.10
2017-05-27T12:04:32.859Z,2.80
2017-05-27T12:07:01.079Z,3.04
2017-05-27T12:09:29.297Z,2.74
2017-05-27T12:11:57.546Z,2.62
2017-05-27T12:14:25.799Z,2.60
2017-05-27T12:16:54.004Z,2.62
2017-05-27T12:19:22.219Z,2.40
2017-05-27T12:21:50.439Z,2.84
2017-05-27T12:24:18.643Z,2.58
2017-05-27T12:26:47.675Z,2.82
2017-05-27T12:29:15.883Z,2.68
2017-05-27T12:31:44.122Z,2.60
2017-05-27T12:34:12.327Z,3.10
2017-05-27T12:36:40.547Z,2.80
2017-05-27T12:39:08.762Z,2.36
2017-05-27T12:41:36.983Z,2.54
2017-05-27T12:44:05.195Z,2.36
2017-05-27T12:46:33.415Z,2.68
2017-05-27T12:49:02.267Z,2.84
2017-05-27T12:51:30.491Z,2.14
2017-05-27T12:53:59.675Z,3.00
2017-05-27T12:56:27.903Z,2.14
2017-05-27T12:58:56.118Z,3.00
2017-05-27T13:01:24.346Z,2.80
2017-05-27T13:03:52.559Z,2.88
2017-05-27T13:06:20.767Z,3.30
2017-05-27T13:08:48.994Z,2.54
2017-05-27T13:11:17.211Z,3.18
2017-05-27T13:13:45.446Z,2.68
2017-05-27T13:16:13.667Z,2.62
2017-05-27T13:18:41.879Z,2.68
2017-05-27T13:21:10.096Z,2.54
2017-05-27T13:23:38.319Z,2.78
2017-05-27T13:26:06.534Z,2.48
2017-05-27T13:28:34.744Z,2.50
2017-05-27T13:31:02.972Z,2.34
2017-05-27T13:33:31.183Z,2.08
2017-05-27T13:35:59.407Z,2.44
2017-05-27T13:38:27.629Z,2.86
2017-05-27T13:40:56.151Z,2.84
2017-05-27T13:43:24.364Z,2.90
2017-05-27T13:45:52.583Z,3.02
2017-05-27T13:48:20.797Z,2.48
2017-05-27T13:50:49.011Z,3.16
2017-05-27T13:53:17.227Z,2.82
2017-05-27T13:55:45.435Z,3.00
2017-05-27T13:58:13.659Z,2.60
2017-05-27T14:00:41.874Z,2.58
2017-05-27T14:03:10.095Z,3.24
2017-05-27T14:05:38.302Z,3.04
2017-05-27T14:08:06.524Z,3.34
2017-05-27T14:10:35.627Z,3.00
2017-05-27T14:13:03.851Z,3.04
2017-05-27T14:15:32.055Z,3.02
2017-05-27T14:18:00.278Z,3.06
2017-05-27T14:20:28.501Z,3.04
2017-05-27T14:22:56.791Z,2.62
2017-05-27T14:25:25.006Z,2.32
2017-05-27T14:27:53.228Z,3.10
2017-05-27T14:30:21.831Z,2.72
2017-05-27T14:32:50.102Z,3.10
2017-05-27T14:35:18.383Z,2.40
2017-05-27T14:37:46.603Z,2.46
2017-05-27T14:40:15.135Z,2.42
2017-05-27T14:42:43.368Z,3.06
2017-05-27T14:45:11.588Z,2.76
2017-05-27T14:47:39.792Z,2.78
2017-05-27T14:50:08.033Z,2.82
2017-05-27T14:52:36.243Z,3.20
2017-05-27T14:55:04.467Z,2.74
2017-05-27T14:57:32.680Z,2.48
2017-05-27T15:00:00.912Z,3.18
2017-05-27T15:02:29.110Z,2.40
2017-05-27T15:04:57.335Z,2.94
2017-05-27T15:07:25.551Z,2.48
2017-05-27T15:09:53.775Z,2.90
2017-05-27T15:12:21.992Z,2.90
2017-05-27T15:14:50.203Z,2.74
2017-05-27T15:17:18.427Z,2.68
2017-05-27T15:19:46.635Z,2.76
2017-05-27T15:22:14.859Z,2.40
2017-05-27T15:24:43.078Z,3.10
2017-05-27T15:27:11.299Z,2.52
2017-05-27T15:29:39.511Z,2.78
2017-05-27T15:32:07.731Z,2.36
2017-05-27T15:34:35.943Z,2.70
2017-05-27T15:37:04.168Z,2.46
2017-05-27T15:39:32.388Z,2.60
2017-05-27T15:42:00.608Z,3.04
2017-05-27T15:44:28.827Z,2.98
2017-05-27T15:46:57.039Z,3.00
2017-05-27T15:49:25.262Z,3.56
2017-05-27T15:51:53.495Z,3.04
2017-05-27T15:54:21.707Z,3.24
2017-05-27T15:56:49.918Z,2.84
2017-05-27T15:59:18.149Z,3.04
2017-05-27T16:01:46.351Z,3.48
2017-05-27T16:04:14.967Z,2.92
2017-05-27T16:06:43.519Z,3.40
2017-05-27T16:09:11.742Z,3.14
2017-05-27T16:11:39.973Z,3.34
2017-05-27T16:14:08.191Z,3.60
2017-05-27T16:16:36.819Z,2.88
2017-05-27T16:19:05.954Z,3.18
2017-05-27T16:21:34.179Z,2.76
2017-05-27T16:24:02.407Z,3.18
2017-05-27T16:26:30.627Z,3.30
2017-05-27T16:28:58.843Z,2.72
2017-05-27T16:31:27.082Z,3.02
2017-05-27T16:33:55.303Z,3.30
2017-05-27T16:36:23.519Z,2.94
2017-05-27T16:38:51.740Z,3.00
2017-05-27T16:41:19.953Z,3.20
2017-05-27T16:43:48.168Z,3.30
2017-05-27T16:46:16.379Z,2.60
2017-05-27T16:48:44.610Z,2.68
2017-05-27T16:51:12.831Z,2.72
2017-05-27T16:53:41.058Z,2.94
2017-05-27T16:56:09.263Z,2.74
2017-05-27T16:58:37.479Z,2.70
2017-05-27T17:01:05.695Z,3.42
2017-05-27T17:03:33.909Z,2.80
2017-05-27T17:06:02.935Z,2.62
2017-05-27T17:08:31.153Z,2.68
2017-05-27T17:10:59.372Z,3.14
2017-05-27T17:13:27.588Z,3.32
2017-05-27T17:15:55.807Z,2.80
2017-05-27T17:18:24.015Z,2.96
2017-05-27T17:20:52.244Z,2.72
2017-05-27T17:23:20.462Z,2.90
2017-05-27T17:25:48.684Z,2.92
2017-05-27T17:28:17.084Z,3.22
2017-05-27T17:30:45.304Z,3.38
2017-05-27T17:33:13.516Z,3.26
2017-05-27T17:35:41.736Z,3.36
2017-05-27T17:38:09.960Z,3.12
2017-05-27T17:40:38.175Z,3.16
2017-05-27T17:43:06.399Z,3.00
2017-05-27T17:45:34.611Z,3.26
2017-05-27T17:48:02.840Z,2.98
2017-05-27T17:50:31.051Z,3.08
2017-05-27T17:52:59.270Z,3.34
2017-05-27T17:55:27.500Z,3.22
2017-05-27T17:57:55.723Z,3.90
2017-05-27T18:00:23.939Z,2.90
2017-05-27T18:02:52.144Z,3.30
2017-05-27T18:05:20.367Z,3.30
2017-05-27T18:07:49.227Z,2.82
2017-05-27T18:10:17.459Z,3.68
2017-05-27T18:12:45.664Z,3.30
2017-05-27T18:15:13.883Z,3.26
2017-05-27T18:17:42.463Z,3.62
2017-05-27T18:20:10.680Z,3.38
2017-05-27T18:22:38.891Z,3.40
2017-05-27T18:25:07.090Z,3.14
2017-05-27T18:27:35.315Z,3.20
2017-05-27T18:30:03.527Z,3.40
2017-05-27T18:32:32.567Z,3.00
2017-05-27T18:35:00.784Z,3.20
2017-05-27T18:37:28.999Z,4.04
2017-05-27T18:39:57.219Z,3.34
2017-05-27T18:42:25.443Z,3.44
2017-05-27T18:44:53.647Z,3.42
2017-05-27T18:47:21.875Z,3.68
2017-05-27T18:49:50.091Z,4.10
2017-05-27T18:52:18.300Z,4.72
2017-05-27T18:54:46.527Z,3.76
2017-05-27T18:57:14.735Z,3.56
2017-05-27T18:59:42.964Z,3.44
2017-05-27T19:02:11.170Z,4.00
2017-05-27T19:04:39.397Z,4.06
2017-05-27T19:07:07.604Z,3.24
2017-05-27T19:09:35.824Z,3.40
2017-05-27T19:12:04.035Z,3.42
2017-05-27T19:14:32.267Z,3.88
2017-05-27T19:17:00.479Z,3.58
2017-05-27T19:19:28.695Z,3.40
2017-05-27T19:21:56.924Z,4.02
2017-05-27T19:24:25.136Z,3.92
2017-05-27T19:26:53.352Z,3.98
2017-05-27T19:29:21.564Z,3.54
2017-05-27T19:31:49.780Z,3.90
2017-05-27T19:34:17.988Z,3.70
2017-05-27T19:36:46.219Z,4.10
2017-05-27T19:39:14.440Z,3.56
2017-05-27T19:41:42.658Z,3.68
2017-05-27T19:44:10.871Z,3.92
2017-05-27T19:46:39.079Z,4.30
2017-05-27T19:49:07.298Z,6.26
2017-05-27T19:51:35.511Z,5.62
2017-05-27T19:54:03.735Z,7.32
2017-05-27T19:56:31.947Z,5.32
2017-05-27T19:59:00.179Z,5.42
2017-05-27T20:01:28.387Z,4.88
2017-05-27T20:03:56.615Z,4.96
2017-05-27T20:06:24.823Z,4.58
2017-05-27T20:08:53.069Z,4.96
2017-05-27T20:11:21.275Z,4.32
2017-05-27T20:13:49.478Z,4.70
2017-05-27T20:16:17.698Z,3.98
2017-05-27T20:18:45.908Z,4.60
2017-05-27T20:21:14.131Z,4.16
2017-05-27T20:23:42.349Z,4.50
2017-05-27T20:26:10.579Z,4.62
2017-05-27T20:28:38.787Z,4.10
2017-05-27T20:31:07.011Z,4.98
2017-05-27T20:33:35.222Z,4.60
2017-05-27T20:36:03.440Z,5.08
2017-05-27T20:38:31.657Z,5.20
2017-05-27T20:40:59.888Z,5.68
2017-05-27T20:43:28.101Z,4.94
2017-05-27T20:45:56.308Z,4.94
2017-05-27T20:48:24.532Z,5.16
2017-05-27T20:50:52.747Z,4.72
2017-05-27T20:53:20.976Z,4.60
2017-05-27T20:55:49.189Z,4.84
2017-05-27T20:58:17.420Z,5.10
2017-05-27T21:00:45.619Z,4.36
2017-05-27T21:03:13.845Z,4.52
2017-05-27T21:05:42.054Z,3.86
2017-05-27T21:08:10.294Z,3.32
2017-05-27T21:10:38.507Z,4.02
2017-05-27T21:13:06.717Z,4.30
2017-05-27T21:15:34.927Z,4.92
2017-05-27T21:18:03.139Z,3.76
2017-05-27T21:20:31.359Z,3.42
2017-05-27T21:22:59.564Z,4.68
2017-05-27T21:25:27.795Z,4.34
2017-05-27T21:27:56.004Z,4.42
2017-05-27T21:30:24.223Z,4.30
2017-05-27T21:32:52.436Z,4.08
2017-05-27T21:35:20.655Z,4.20
2017-05-27T21:37:48.865Z,4.02
2017-05-27T21:40:17.095Z,4.58
2017-05-27T21:42:45.314Z,4.02
2017-05-27T21:45:14.479Z,4.88
2017-05-27T21:47:42.701Z,4.20
2017-05-27T21:50:10.915Z,3.86
2017-05-27T21:52:39.139Z,4.04
2017-05-27T21:55:07.359Z,5.18
2017-05-27T21:57:35.585Z,5.24
2017-05-27T22:00:03.791Z,5.12
2017-05-27T22:02:33.119Z,5.60
2017-05-27T22:05:01.335Z,5.46
2017-05-27T22:07:29.571Z,5.14
2017-05-27T22:09:57.793Z,5.50
2017-05-27T22:12:25.999Z,5.14
2017-05-27T22:14:54.232Z,4.96
2017-05-27T22:17:22.447Z,5.70
2017-05-27T22:19:50.663Z,6.56
2017-05-27T22:22:18.875Z,6.40
2017-05-27T22:24:47.101Z,6.42
2017-05-27T22:27:15.319Z,5.28
2017-05-27T22:29:43.540Z,5.48
2017-05-27T22:32:11.759Z,6.96
2017-05-27T22:34:39.975Z,6.60
2017-05-27T22:37:08.191Z,6.92
2017-05-27T22:39:36.491Z,6.72
2017-05-27T22:42:04.694Z,7.32
2017-05-27T22:44:32.916Z,5.86
2017-05-27T22:47:01.134Z,6.30
2017-05-27T22:49:29.339Z,5.84
2017-05-27T22:51:57.573Z,5.60
2017-05-27T22:54:25.779Z,5.36
2017-05-27T22:56:54.112Z,5.80
2017-05-27T22:59:22.312Z,5.50
2017-05-27T23:01:50.535Z,5.24
2017-05-27T23:04:18.747Z,5.58
2017-05-27T23:06:46.987Z,7.22
2017-05-27T23:09:15.197Z,7.22
2017-05-27T23:11:43.399Z,6.26
2017-05-27T23:14:11.623Z,7.80
2017-05-27T23:16:39.841Z,6.20
2017-05-27T23:19:08.072Z,6.28
2017-05-27T23:21:36.291Z,7.12
2017-05-27T23:24:05.200Z,8.14
2017-05-27T23:26:33.411Z,7.40
2017-05-27T23:29:01.626Z,6.66
2017-05-27T23:31:29.839Z,6.76
2017-05-27T23:33:58.056Z,7.32
2017-05-27T23:36:26.259Z,6.38
2017-05-27T23:38:54.483Z,6.50
2017-05-27T23:41:22.694Z,7.12
2017-05-27T23:43:50.911Z,6.36
2017-05-27T23:46:19.121Z,7.30
2017-05-27T23:48:47.335Z,6.14
2017-05-27T23:51:15.547Z,6.24
2017-05-27T23:53:43.766Z,6.02
2017-05-27T23:56:11.971Z,5.20
2017-05-27T23:58:40.191Z,6.36
